Purcell, MO (64857)

11:19 AM CST del 16 Gennaio 2017 (GMT -0600)
Joplin Regional | | Change Station

Alt. 981 ft 37.15 °N, 94.50 °W | Updated 26 minutes ago

Coperto
Coperto
60 °F
Sembra 60 °F
N
17
Vento Variabile Vento da Sud

Oggi
Massima -- | Minima -- °F
--% Possibilità di precip.
Ieri
Massima -- | Minima -- °F
Precip. -- in
Pressione 29.90 in
Visibilità 10.0 miglia
Nuvole Molto nuvoloso 1900 ft
Molto nuvoloso 3900 ft
Punto di rugiada 54 °F
Umidità 80%
Piovosità 0.27 in
Spessore del manto nevoso Non disponibile.
7:30 AM 5:25 PM
Gobba a levante, 80% visible
METAR KJLN 161653Z 19015KT 10SM BKN019 BKN039 16/12 A2990 RMK AO2 SLP123 T01560122 $
Pressione 29.90 in
Visibilità 10.0 miglia
Nuvole Molto nuvoloso 1900 ft
Molto nuvoloso 3900 ft
Punto di rugiada 54 °F
Umidità 80%
Piovosità 0.27 in
Spessore del manto nevoso Non disponibile.
7:30 AM 5:25 PM
Gobba a levante, 80% visible
METAR KJLN 161653Z 19015KT 10SM BKN019 BKN039 16/12 A2990 RMK AO2 SLP123 T01560122 $

Get Your Daily Forecast Email!

Thanks for signing up!

Be on the lookout for a verification email in your inbox.

You'll start receiving the daily forecast at 8 AM.

×

10-Day Weather Forecast

Almanac

Astronomia

Jan. 16, 2017 Alba Tramonto
Ora attuale
Crepuscolo civile
Crepuscolo nautico
Crepuscolo astronomico
Luna
Estensione della luce visibile
Lunghezza del giorno
Tomorrow will be .
, % of the Moon is Illuminated

Gli estremi di oggi

State Highs State Lows

Community

WunderPhotos

Upload Photos

1,962,540 foto caricate!

WunderBlog® & News

Nearby

Qualità dell'aria

  Qualità dell'aria Indice AQ Inquinante
Not available.

Profondità neve

Stazione Profondità Altitudine

Attività sismica

Città  Distanza Mag. Data & Ora
Minimo Magnitudo Mostrato è 2.5.

Temperature delle acque costiere

Località Temperatura

Stations

Stazioni meteo nelle vicinanze

Ubicazione della stazione Temp. Raffreddamento del vento Punto di rugiada Umidità Vento Precip. Alt. Aggiornato Tipo
                   

Watches & Warnings

There are currently no watches in effect.